Time;durP1;ratioP1;P1;durP2;ratioP2;P2;SDS_P1;SDS_P2;PMS_P1;PMS_P2;Temp;Humidity;BMP_temperature;BMP_pressure;BME280_temperature;BME280_humidity;BME280_pressure;Samples;Min_cycle;Max_cycle;Signal;HPM_P1;HPM_P2
2022/09/07 00:01:38;;;;;;;4.57;2.80;;;18.70;99.90;;;;;;5043480;28;20915;-74
2022/09/07 00:04:24;;;;;;;9.60;2.80;;;18.60;99.90;;;;;;5045158;28;20478;-74
2022/09/07 00:07:11;;;;;;;6.43;3.20;;;18.60;99.90;;;;;;5046048;28;20455;-74
2022/09/07 00:09:57;;;;;;;4.13;2.60;;;18.70;99.90;;;;;;5043920;28;20452;-75
2022/09/07 00:12:43;;;;;;;7.07;3.23;;;18.50;99.90;;;;;;5049384;28;20971;-74
2022/09/07 00:15:29;;;;;;;5.73;2.70;;;18.60;99.90;;;;;;5047099;28;20475;-74
2022/09/07 00:18:14;;;;;;;3.87;2.50;;;18.60;99.90;;;;;;5040972;28;20463;-73
2022/09/07 00:21:00;;;;;;;5.40;2.90;;;18.70;99.90;;;;;;5049136;28;20451;-74
2022/09/07 00:23:49;;;;;;;5.33;3.07;;;18.70;99.90;;;;;;5046463;28;20482;-74
2022/09/07 00:26:35;;;;;;;6.00;2.43;;;18.60;99.90;;;;;;5048517;28;20443;-74
2022/09/07 00:29:20;;;;;;;3.83;2.80;;;18.60;99.90;;;;;;5043020;28;20447;-74
2022/09/07 00:32:06;;;;;;;3.73;2.50;;;18.70;99.90;;;;;;5046110;28;20527;-74
2022/09/07 00:34:52;;;;;;;4.87;2.67;;;18.80;99.90;;;;;;5045414;28;20530;-74
2022/09/07 00:37:37;;;;;;;2.83;2.27;;;18.80;99.90;;;;;;5043166;28;20811;-74
2022/09/07 00:40:25;;;;;;;4.27;3.20;;;18.80;99.90;;;;;;5047870;28;20451;-74
2022/09/07 00:43:16;;;;;;;3.90;2.73;;;18.70;99.90;;;;;;5045174;28;20462;-74
2022/09/07 00:46:02;;;;;;;4.97;2.10;;;18.80;99.90;;;;;;5044717;28;20475;-74
2022/09/07 00:49:00;;;;;;;3.83;2.73;;;18.80;99.90;;;;;;5044306;28;20451;-74
2022/09/07 00:51:50;;;;;;;3.60;3.03;;;18.90;99.90;;;;;;5045777;28;20463;-75
2022/09/07 00:54:40;;;;;;;4.23;2.77;;;18.90;99.90;;;;;;5046801;28;21014;-75
2022/09/07 00:57:27;;;;;;;9.73;2.60;;;19.00;99.90;;;;;;5040154;28;20444;-73
2022/09/07 01:00:13;;;;;;;6.80;3.03;;;19.00;99.90;;;;;;5043690;28;20561;-75
2022/09/07 01:03:00;;;;;;;2.60;2.17;;;18.90;99.90;;;;;;5047307;28;20576;-74
2022/09/07 01:05:50;;;;;;;8.53;2.87;;;18.90;99.90;;;;;;5044964;28;20549;-74
2022/09/07 01:08:36;;;;;;;3.17;2.33;;;19.00;99.90;;;;;;5040107;28;20448;-74
2022/09/07 01:11:23;;;;;;;5.47;2.77;;;18.90;99.90;;;;;;5044509;28;20463;-75
2022/09/07 01:14:15;;;;;;;4.40;2.73;;;18.80;99.90;;;;;;5045008;28;20467;-74
2022/09/07 01:17:10;;;;;;;4.00;2.80;;;18.70;99.90;;;;;;5040962;28;20545;-74
2022/09/07 01:20:37;;;;;;;4.20;2.60;;;18.70;99.90;;;;;;5048752;28;20451;-73
2022/09/07 01:23:58;;;;;;;6.30;3.00;;;18.70;99.90;;;;;;5048353;28;20549;-75
2022/09/07 01:27:07;;;;;;;10.00;2.93;;;18.70;99.90;;;;;;5038421;28;20448;-73
2022/09/07 01:30:01;;;;;;;9.33;3.10;;;18.80;99.90;;;;;;5043299;28;20941;-74
2022/09/07 01:33:04;;;;;;;6.93;2.50;;;18.90;99.90;;;;;;5044996;28;20463;-74
2022/09/07 01:35:58;;;;;;;6.23;2.50;;;19.10;99.90;;;;;;5044868;28;20478;-74
2022/09/07 01:38:46;;;;;;;5.13;2.90;;;19.00;99.90;;;;;;5044262;28;20530;-74
2022/09/07 01:41:39;;;;;;;6.03;2.83;;;19.10;99.90;;;;;;5048508;28;20444;-75
2022/09/07 01:44:29;;;;;;;4.13;2.50;;;19.10;99.90;;;;;;5046104;28;20475;-74
2022/09/07 01:47:21;;;;;;;5.03;2.93;;;19.20;99.90;;;;;;5043013;28;20457;-74
2022/09/07 01:50:10;;;;;;;5.93;2.70;;;19.20;99.90;;;;;;5047075;28;20432;-74
2022/09/07 01:53:00;;;;;;;8.60;2.90;;;19.30;99.90;;;;;;5043186;28;20985;-75
2022/09/07 01:55:49;;;;;;;5.67;3.20;;;19.10;99.90;;;;;;5048420;28;20498;-73
2022/09/07 01:58:39;;;;;;;4.17;2.90;;;19.00;99.90;;;;;;5048030;28;20915;-75
2022/09/07 02:01:31;;;;;;;6.43;3.13;;;19.00;99.90;;;;;;5048439;28;20461;-75
2022/09/07 02:04:21;;;;;;;7.40;2.87;;;18.90;99.90;;;;;;5048130;28;20479;-74
2022/09/07 02:07:14;;;;;;;6.40;3.20;;;18.70;99.90;;;;;;5047255;28;20871;-73
2022/09/07 02:10:06;;;;;;;6.90;3.33;;;18.70;99.90;;;;;;5050044;28;20451;-74
2022/09/07 02:12:55;;;;;;;5.27;3.40;;;18.70;99.90;;;;;;5045045;28;20603;-74
2022/09/07 02:15:45;;;;;;;6.27;3.80;;;18.90;99.90;;;;;;5045131;28;20486;-75
2022/09/07 02:18:37;;;;;;;8.43;4.00;;;19.10;99.90;;;;;;5046693;28;20447;-75
2022/09/07 02:21:29;;;;;;;10.07;4.10;;;19.30;99.90;;;;;;5051255;28;20460;-74
2022/09/07 02:24:24;;;;;;;11.00;5.00;;;19.50;99.90;;;;;;5048471;28;20490;-74
2022/09/07 02:27:15;;;;;;;6.43;3.90;;;19.70;99.90;;;;;;5045560;28;20439;-74
2022/09/07 02:30:00;;;;;;;12.03;3.80;;;19.80;99.90;;;;;;5051409;28;20526;-74
2022/09/07 02:32:46;;;;;;;6.83;4.00;;;19.80;99.90;;;;;;5042951;28;20814;-74
2022/09/07 02:35:32;;;;;;;7.93;4.43;;;19.80;99.90;;;;;;5046983;28;21093;-74
2022/09/07 02:38:19;;;;;;;10.37;4.93;;;19.70;99.90;;;;;;5048585;28;21048;-74
2022/09/07 02:41:06;;;;;;;13.77;6.73;;;19.70;99.90;;;;;;5048172;28;20451;-74
2022/09/07 02:43:52;;;;;;;11.60;5.10;;;19.70;99.90;;;;;;5050132;28;20605;-74
2022/09/07 02:46:52;;;;;;;10.20;5.10;;;19.70;99.90;;;;;;5045609;28;20514;-75
2022/09/07 02:50:04;;;;;;;9.63;5.23;;;19.60;99.90;;;;;;5047847;28;20459;-74
2022/09/07 02:53:03;;;;;;;10.00;5.60;;;19.50;99.90;;;;;;5045805;28;20485;-75
2022/09/07 02:56:05;;;;;;;8.30;5.40;;;19.50;99.90;;;;;;5041475;28;21154;-75
2022/09/07 02:59:02;;;;;;;13.20;6.10;;;19.50;99.90;;;;;;5047965;28;20456;-75
2022/09/07 03:01:56;;;;;;;10.60;5.47;;;19.50;99.90;;;;;;5044962;28;20498;-74
2022/09/07 03:04:49;;;;;;;9.17;5.50;;;19.50;99.90;;;;;;5047284;28;20478;-73
2022/09/07 03:07:39;;;;;;;9.97;5.20;;;19.50;99.90;;;;;;5045352;28;20834;-74
2022/09/07 03:10:26;;;;;;;10.67;5.10;;;19.50;99.90;;;;;;5047511;28;20451;-75
2022/09/07 03:13:21;;;;;;;7.23;5.20;;;19.60;99.90;;;;;;5047619;28;20956;-74
2022/09/07 03:16:12;;;;;;;8.50;5.10;;;19.60;99.90;;;;;;5043884;28;20977;-74
2022/09/07 03:18:57;;;;;;;8.43;5.07;;;19.60;99.90;;;;;;5048943;28;20451;-73
2022/09/07 03:21:43;;;;;;;9.90;5.63;;;19.60;99.90;;;;;;5046107;28;20448;-74
2022/09/07 03:24:29;;;;;;;13.20;6.10;;;19.40;99.90;;;;;;5048426;28;20479;-73
2022/09/07 03:27:15;;;;;;;7.80;5.60;;;19.40;99.90;;;;;;5048096;28;20447;-75
2022/09/07 03:30:02;;;;;;;8.90;5.57;;;19.30;99.90;;;;;;5045951;28;20538;-74
2022/09/07 03:32:47;;;;;;;8.60;6.03;;;19.20;99.90;;;;;;5045768;28;20785;-74
2022/09/07 03:35:34;;;;;;;8.60;4.93;;;19.10;99.90;;;;;;5043973;28;21424;-75
2022/09/07 03:38:19;;;;;;;8.67;5.33;;;19.10;99.90;;;;;;5047700;28;20499;-75
2022/09/07 03:41:06;;;;;;;9.27;7.50;;;19.00;99.90;;;;;;5045615;28;20814;-74
2022/09/07 03:43:52;;;;;;;9.90;5.40;;;18.90;99.90;;;;;;5049014;28;20629;-75
2022/09/07 03:46:39;;;;;;;9.50;6.03;;;18.90;99.90;;;;;;5046565;28;20522;-74
2022/09/07 03:49:25;;;;;;;8.17;5.70;;;19.00;99.90;;;;;;5043156;28;20440;-74
2022/09/07 03:52:11;;;;;;;11.23;5.33;;;19.10;99.90;;;;;;5046357;28;20426;-74
2022/09/07 03:54:56;;;;;;;9.83;5.57;;;19.10;99.90;;;;;;5045094;28;20465;-75
2022/09/07 03:57:42;;;;;;;6.87;5.17;;;19.10;99.90;;;;;;5046813;28;20541;-75
2022/09/07 04:00:28;;;;;;;9.23;5.50;;;19.10;99.90;;;;;;5048456;28;20448;-75
2022/09/07 04:03:14;;;;;;;7.20;4.60;;;18.90;99.90;;;;;;5047358;28;20541;-74
2022/09/07 04:06:00;;;;;;;9.00;6.00;;;18.80;99.90;;;;;;5041894;28;20541;-74
2022/09/07 04:08:46;;;;;;;6.33;5.53;;;18.80;99.90;;;;;;5046672;28;20554;-74
2022/09/07 04:11:32;;;;;;;9.20;5.33;;;18.80;99.90;;;;;;5049342;28;20439;-75
2022/09/07 04:14:18;;;;;;;13.00;5.93;;;18.80;99.90;;;;;;5044257;28;20577;-75
2022/09/07 04:17:03;;;;;;;8.57;6.40;;;18.90;99.90;;;;;;5045882;28;21580;-73
2022/09/07 04:19:51;;;;;;;7.53;6.17;;;18.90;99.90;;;;;;5048823;28;20458;-75
2022/09/07 04:22:36;;;;;;;7.53;5.80;;;18.90;99.90;;;;;;5048051;28;20547;-75
2022/09/07 04:25:22;;;;;;;8.50;5.90;;;18.90;99.90;;;;;;5045278;28;20537;-74
2022/09/07 04:28:08;;;;;;;8.13;6.30;;;18.80;99.90;;;;;;5043833;28;20443;-74
2022/09/07 04:30:53;;;;;;;7.27;5.87;;;18.80;99.90;;;;;;5048233;28;20569;-75
2022/09/07 04:33:39;;;;;;;7.47;5.87;;;18.70;99.90;;;;;;5045852;28;20450;-73
2022/09/07 04:36:27;;;;;;;9.47;5.90;;;18.70;99.90;;;;;;5043185;28;20447;-74
2022/09/07 04:39:12;;;;;;;11.87;7.33;;;18.70;99.90;;;;;;5045710;28;20455;-74
2022/09/07 04:41:58;;;;;;;18.70;7.60;;;18.60;99.90;;;;;;5042791;28;20422;-72
2022/09/07 04:44:43;;;;;;;7.50;5.30;;;18.70;99.90;;;;;;5038890;28;20476;-74
2022/09/07 04:47:30;;;;;;;9.57;6.53;;;18.60;99.90;;;;;;5045243;28;20443;-74
2022/09/07 04:50:15;;;;;;;7.87;6.53;;;18.70;99.90;;;;;;5042991;28;20443;-75
2022/09/07 04:53:03;;;;;;;14.37;7.20;;;18.60;99.90;;;;;;5045532;28;20455;-74
2022/09/07 04:55:48;;;;;;;7.53;5.67;;;18.60;99.90;;;;;;5045792;28;20482;-73
2022/09/07 04:58:34;;;;;;;7.53;4.40;;;18.60;99.90;;;;;;5048905;28;20443;-74
2022/09/07 05:01:21;;;;;;;5.10;4.40;;;18.60;99.90;;;;;;5046291;28;20852;-75
2022/09/07 05:04:07;;;;;;;8.80;4.60;;;18.60;99.90;;;;;;5042756;28;20455;-74
2022/09/07 05:06:53;;;;;;;5.10;4.60;;;18.60;99.90;;;;;;5041855;28;20451;-74
2022/09/07 05:09:40;;;;;;;6.07;5.03;;;18.50;99.90;;;;;;5047188;28;20448;-74
2022/09/07 05:12:26;;;;;;;5.33;4.20;;;18.40;99.90;;;;;;5047726;28;20439;-75
2022/09/07 05:15:12;;;;;;;6.23;4.43;;;18.30;99.90;;;;;;5041357;28;20475;-75
2022/09/07 05:17:57;;;;;;;7.77;5.50;;;18.30;99.90;;;;;;5045762;28;20422;-75
2022/09/07 05:20:43;;;;;;;10.13;5.40;;;18.40;99.90;;;;;;5049505;28;20451;-73
2022/09/07 05:23:29;;;;;;;11.60;5.90;;;18.30;99.90;;;;;;5041478;28;20489;-75
2022/09/07 05:26:16;;;;;;;5.97;4.90;;;18.40;99.90;;;;;;5047760;28;20621;-74
2022/09/07 05:29:04;;;;;;;6.37;4.57;;;18.40;99.90;;;;;;5044381;28;20999;-74
2022/09/07 05:31:50;;;;;;;6.60;4.33;;;18.50;99.90;;;;;;5048451;28;20931;-74
2022/09/07 05:34:35;;;;;;;6.50;4.77;;;18.60;99.90;;;;;;5048119;28;20482;-75
2022/09/07 05:37:21;;;;;;;5.90;4.10;;;18.70;99.90;;;;;;5050942;28;20467;-74
2022/09/07 05:40:08;;;;;;;6.80;4.87;;;18.70;99.90;;;;;;5050953;28;20440;-74
2022/09/07 05:42:55;;;;;;;7.57;4.60;;;18.70;99.90;;;;;;5047273;28;20452;-75
2022/09/07 05:45:41;;;;;;;5.60;5.03;;;18.80;99.90;;;;;;5051308;28;20529;-75
2022/09/07 05:48:26;;;;;;;10.33;4.83;;;18.70;99.90;;;;;;5050863;28;20525;-74
2022/09/07 05:51:13;;;;;;;8.93;4.70;;;18.70;99.90;;;;;;5051561;28;20443;-74
2022/09/07 05:53:59;;;;;;;7.10;4.93;;;18.60;99.90;;;;;;5044631;28;20921;-72
2022/09/07 05:56:45;;;;;;;6.40;5.53;;;18.50;99.90;;;;;;5045946;28;20805;-75
2022/09/07 05:59:33;;;;;;;9.17;5.20;;;18.50;99.90;;;;;;5051104;28;20443;-75
2022/09/07 06:02:18;;;;;;;5.53;4.80;;;18.50;99.90;;;;;;5048508;28;20509;-74
2022/09/07 06:05:05;;;;;;;10.10;5.33;;;18.50;99.90;;;;;;5048642;28;20478;-75
2022/09/07 06:07:50;;;;;;;7.60;5.00;;;18.60;99.90;;;;;;5044777;28;20418;-73
2022/09/07 06:10:37;;;;;;;5.33;4.53;;;18.60;99.90;;;;;;5049183;28;20811;-73
2022/09/07 06:13:23;;;;;;;6.37;5.07;;;18.70;99.90;;;;;;5042079;28;20428;-72
2022/09/07 06:16:12;;;;;;;9.13;6.17;;;18.90;99.90;;;;;;5047886;28;20467;-72
2022/09/07 06:18:58;;;;;;;9.07;5.70;;;19.00;99.90;;;;;;5046780;28;20452;-73
2022/09/07 06:21:44;;;;;;;6.73;6.03;;;19.10;99.90;;;;;;5050603;28;20430;-73
2022/09/07 06:24:30;;;;;;;11.00;6.13;;;19.20;99.90;;;;;;5047692;28;20508;-73
2022/09/07 06:27:15;;;;;;;9.60;5.57;;;19.20;99.90;;;;;;5050675;28;20455;-73
2022/09/07 06:30:00;;;;;;;12.83;6.43;;;19.20;99.90;;;;;;5045180;28;20454;-72
2022/09/07 06:32:48;;;;;;;13.03;7.80;;;19.30;99.90;;;;;;5044669;28;20915;-73
2022/09/07 06:35:33;;;;;;;12.00;6.83;;;19.30;99.90;;;;;;5047804;28;21078;-73
2022/09/07 06:38:19;;;;;;;8.30;6.83;;;19.40;99.90;;;;;;5044144;28;20451;-73
2022/09/07 06:41:07;;;;;;;9.40;7.80;;;19.50;99.90;;;;;;5047399;28;20825;-73
2022/09/07 06:43:54;;;;;;;9.40;7.43;;;19.40;99.90;;;;;;5048377;28;20474;-73
2022/09/07 06:46:40;;;;;;;8.47;6.93;;;19.40;99.90;;;;;;5041499;28;20460;-73
2022/09/07 06:49:27;;;;;;;6.90;6.10;;;19.40;99.90;;;;;;5043589;28;20785;-74
2022/09/07 06:52:13;;;;;;;9.80;6.33;;;19.50;99.90;;;;;;5045488;28;20925;-73
2022/09/07 06:54:58;;;;;;;9.87;7.00;;;19.60;99.90;;;;;;5039828;28;20448;-73
2022/09/07 06:57:44;;;;;;;12.33;6.63;;;19.70;99.90;;;;;;5046961;28;20445;-73
2022/09/07 07:00:30;;;;;;;8.73;6.60;;;19.80;99.90;;;;;;5047543;28;20760;-73
2022/09/07 07:03:15;;;;;;;10.67;7.00;;;19.90;99.90;;;;;;5041326;28;20500;-73
2022/09/07 07:06:02;;;;;;;14.43;6.70;;;19.90;99.90;;;;;;5041911;28;20492;-73
2022/09/07 07:08:48;;;;;;;9.10;6.13;;;20.00;99.90;;;;;;5044707;28;20518;-73
2022/09/07 07:11:35;;;;;;;12.40;5.77;;;20.20;99.90;;;;;;5045141;28;20788;-73
2022/09/07 07:14:21;;;;;;;6.47;5.13;;;20.30;99.90;;;;;;5045840;28;20600;-73
2022/09/07 07:17:08;;;;;;;10.83;5.03;;;20.30;99.90;;;;;;5042781;28;20428;-73
2022/09/07 07:19:54;;;;;;;8.83;5.30;;;20.40;99.90;;;;;;5050986;28;20427;-73
2022/09/07 07:22:40;;;;;;;5.60;4.50;;;20.50;99.90;;;;;;5041485;28;20424;-73
2022/09/07 07:25:26;;;;;;;5.50;4.20;;;20.60;99.90;;;;;;5040310;28;20468;-73
2022/09/07 07:28:13;;;;;;;6.00;3.50;;;20.60;99.90;;;;;;5038636;28;20470;-73
2022/09/07 07:31:01;;;;;;;8.80;3.23;;;20.70;99.90;;;;;;5043598;28;20937;-73
2022/09/07 07:33:47;;;;;;;7.30;3.20;;;20.80;99.90;;;;;;5038172;28;20429;-73
2022/09/07 07:36:33;;;;;;;6.30;2.67;;;21.00;99.90;;;;;;5045102;28;20436;-73
2022/09/07 07:39:20;;;;;;;3.73;2.50;;;21.10;99.90;;;;;;5042529;28;20497;-73
2022/09/07 07:42:05;;;;;;;7.33;3.63;;;21.20;99.90;;;;;;5041675;28;20564;-73
2022/09/07 07:44:51;;;;;;;5.70;3.00;;;21.30;99.90;;;;;;5045366;28;20522;-73
2022/09/07 07:47:37;;;;;;;6.90;3.30;;;21.30;99.90;;;;;;5040356;28;20444;-73
2022/09/07 07:50:23;;;;;;;4.17;2.87;;;21.40;99.90;;;;;;5039075;28;20968;-73
2022/09/07 07:53:09;;;;;;;7.30;3.17;;;21.50;99.90;;;;;;5041873;28;20429;-73
2022/09/07 07:55:58;;;;;;;4.60;2.27;;;21.50;99.90;;;;;;5047971;28;20442;-72
2022/09/07 07:58:46;;;;;;;10.17;3.40;;;21.60;99.90;;;;;;5043392;28;20456;-73
2022/09/07 08:01:31;;;;;;;13.50;2.77;;;21.70;99.90;;;;;;5041282;28;20431;-73
2022/09/07 08:04:17;;;;;;;7.30;3.70;;;21.80;99.90;;;;;;5037397;28;20451;-73
2022/09/07 08:07:04;;;;;;;7.63;3.40;;;21.80;99.90;;;;;;5046273;28;20544;-73
2022/09/07 08:09:50;;;;;;;8.00;3.30;;;21.90;99.90;;;;;;5048755;28;20428;-73
2022/09/07 08:12:38;;;;;;;4.93;3.30;;;21.90;99.90;;;;;;5045164;28;20431;-73
2022/09/07 08:15:24;;;;;;;7.97;3.87;;;21.70;99.90;;;;;;5036535;28;20538;-73
2022/09/07 08:18:11;;;;;;;10.97;3.60;;;21.60;99.90;;;;;;5040031;28;20448;-73
2022/09/07 08:21:00;;;;;;;7.60;4.00;;;21.50;99.90;;;;;;5048567;28;20431;-73
2022/09/07 08:23:46;;;;;;;7.57;3.60;;;21.50;99.90;;;;;;5036050;28;20444;-73
2022/09/07 08:26:32;;;;;;;6.37;3.30;;;21.70;99.90;;;;;;5045945;28;20479;-74
2022/09/07 08:29:19;;;;;;;4.40;3.53;;;21.90;99.90;;;;;;5036654;28;20505;-73
2022/09/07 08:32:05;;;;;;;13.60;4.70;;;22.00;99.90;;;;;;5048043;28;20477;-73
2022/09/07 08:34:51;;;;;;;6.70;3.73;;;22.20;99.90;;;;;;5037124;28;20584;-72
2022/09/07 08:37:37;;;;;;;9.87;4.07;;;22.30;99.90;;;;;;5045711;28;20935;-73
2022/09/07 08:40:22;;;;;;;7.00;3.43;;;22.30;99.90;;;;;;5045949;28;20463;-73
2022/09/07 08:43:18;;;;;;;8.00;3.63;;;22.40;99.90;;;;;;5045969;28;20424;-73
2022/09/07 08:46:13;;;;;;;9.37;3.93;;;22.50;99.90;;;;;;5042666;28;20902;-73
2022/09/07 08:49:01;;;;;;;8.13;3.40;;;22.50;99.90;;;;;;5045258;28;20566;-73
2022/09/07 08:51:50;;;;;;;15.87;4.63;;;22.50;99.90;;;;;;5045950;28;20432;-73
2022/09/07 08:54:37;;;;;;;8.70;3.80;;;22.60;99.90;;;;;;5045522;28;20443;-73
2022/09/07 08:57:29;;;;;;;5.33;3.43;;;22.70;99.90;;;;;;5036495;28;20447;-73
2022/09/07 09:00:17;;;;;;;7.60;3.50;;;22.80;99.90;;;;;;5045601;28;20976;-73
2022/09/07 09:03:07;;;;;;;7.27;4.07;;;23.00;99.90;;;;;;5045743;28;20451;-73
2022/09/07 09:06:01;;;;;;;6.67;3.20;;;23.10;99.90;;;;;;5041333;28;20600;-73
2022/09/07 09:09:04;;;;;;;7.83;3.00;;;23.20;99.90;;;;;;5042876;28;20455;-72
2022/09/07 09:11:56;;;;;;;10.23;3.60;;;23.30;99.90;;;;;;5044604;28;20447;-73
2022/09/07 09:14:55;;;;;;;6.93;3.77;;;23.30;99.90;;;;;;5045718;28;20523;-73
2022/09/07 09:17:47;;;;;;;6.23;3.33;;;23.40;99.90;;;;;;5045685;28;20451;-73
2022/09/07 09:20:41;;;;;;;9.70;3.57;;;23.40;99.90;;;;;;5045019;28;20554;-73
2022/09/07 09:23:30;;;;;;;12.33;3.50;;;23.50;99.90;;;;;;5049424;28;20475;-73
2022/09/07 09:26:22;;;;;;;6.93;2.97;;;23.60;99.90;;;;;;5042785;28;20459;-73
2022/09/07 09:29:15;;;;;;;9.53;3.63;;;23.80;99.90;;;;;;5039619;28;20463;-73
2022/09/07 09:32:31;;;;;;;4.87;2.70;;;23.90;99.90;;;;;;5045936;28;20447;-73
2022/09/07 09:35:32;;;;;;;7.30;3.83;;;24.00;99.90;;;;;;5040465;28;20475;-73
2022/09/07 09:38:34;;;;;;;8.77;2.63;;;24.10;99.90;;;;;;5044443;28;20492;-73
2022/09/07 09:41:20;;;;;;;7.40;2.80;;;24.20;99.90;;;;;;5041334;28;20490;-73
2022/09/07 09:44:05;;;;;;;9.30;3.30;;;24.30;99.90;;;;;;5048350;28;20529;-72
2022/09/07 09:46:53;;;;;;;10.90;2.50;;;24.30;99.90;;;;;;5039943;28;20587;-73
2022/09/07 09:49:40;;;;;;;4.83;2.90;;;24.40;99.90;;;;;;5039693;28;20443;-73
2022/09/07 09:52:30;;;;;;;8.20;3.37;;;24.50;99.90;;;;;;5042648;28;20428;-73
2022/09/07 09:55:24;;;;;;;11.33;2.67;;;24.50;99.90;;;;;;5045780;28;21108;-73
2022/09/07 09:58:27;;;;;;;8.07;3.07;;;24.60;99.90;;;;;;5044464;28;20451;-73
2022/09/07 10:01:22;;;;;;;5.70;2.73;;;24.80;99.90;;;;;;5042614;28;20517;-73
2022/09/07 10:04:29;;;;;;;9.50;2.80;;;24.90;99.90;;;;;;5046836;28;20419;-73
2022/09/07 10:07:20;;;;;;;4.57;2.80;;;24.90;98.50;;;;;;5045294;28;20557;-74
2022/09/07 10:10:15;;;;;;;8.00;2.40;;;25.00;99.30;;;;;;5041037;28;20494;-73
2022/09/07 10:13:02;;;;;;;8.30;2.80;;;25.10;98.70;;;;;;5043725;28;20456;-73
2022/09/07 10:15:52;;;;;;;13.43;3.60;;;25.20;95.00;;;;;;5074842;22;21124;-77
2022/09/07 10:18:39;;;;;;;6.77;2.90;;;25.10;93.80;;;;;;5065841;28;20512;-75
2022/09/07 10:21:27;;;;;;;4.03;2.23;;;25.20;95.30;;;;;;5068384;28;21151;-75
2022/09/07 10:24:15;;;;;;;4.10;2.30;;;25.30;94.10;;;;;;5073067;28;20990;-75
2022/09/07 10:27:01;;;;;;;4.07;2.73;;;25.40;93.20;;;;;;5048815;28;20837;-75
2022/09/07 10:29:48;;;;;;;6.20;2.60;;;25.30;91.00;;;;;;5050492;28;20539;-75
2022/09/07 10:33:00;;;;;;;6.43;2.60;;;25.40;91.50;;;;;;5049911;28;20500;-75
2022/09/07 10:35:53;;;;;;;8.80;2.20;;;25.50;90.70;;;;;;5054669;28;21597;-75
2022/09/07 10:38:45;;;;;;;7.70;2.90;;;25.70;92.40;;;;;;5034968;28;20968;-75
2022/09/07 10:41:37;;;;;;;5.20;2.60;;;25.80;88.80;;;;;;5039762;28;20425;-75
2022/09/07 10:44:37;;;;;;;4.80;2.63;;;25.90;87.30;;;;;;5042072;28;20420;-75
2022/09/07 10:47:37;;;;;;;5.60;2.13;;;26.00;79.50;;;;;;5047124;28;20546;-74
2022/09/07 10:50:30;;;;;;;6.77;2.60;;;26.00;79.30;;;;;;5047646;28;20598;-75
2022/09/07 10:53:39;;;;;;;6.40;2.70;;;26.20;77.00;;;;;;5044600;28;20800;-75
2022/09/07 10:56:27;;;;;;;8.73;2.60;;;26.30;78.50;;;;;;5049371;28;20889;-75
2022/09/07 10:59:26;;;;;;;5.33;2.40;;;26.20;74.40;;;;;;5046801;28;20452;-75
2022/09/07 11:02:19;;;;;;;7.43;2.40;;;26.10;75.20;;;;;;5051739;28;20546;-75
2022/09/07 11:05:18;;;;;;;3.90;2.10;;;26.10;75.40;;;;;;5055610;28;20816;-75
2022/09/07 11:08:18;;;;;;;3.40;1.90;;;26.10;74.80;;;;;;5040494;28;21018;-75
2022/09/07 11:11:12;;;;;;;10.10;2.40;;;26.00;77.40;;;;;;5048553;28;20456;-75
2022/09/07 11:14:02;;;;;;;4.67;2.10;;;26.00;76.00;;;;;;5054362;28;20452;-75
2022/09/07 11:16:53;;;;;;;3.50;2.10;;;26.10;75.30;;;;;;5055090;28;20455;-75
2022/09/07 11:19:46;;;;;;;5.97;2.10;;;26.20;75.70;;;;;;5045429;28;20475;-75
2022/09/07 11:22:37;;;;;;;7.40;2.50;;;26.40;74.70;;;;;;5041199;28;20428;-75
2022/09/07 11:25:28;;;;;;;5.97;2.60;;;26.50;72.10;;;;;;5059003;28;20494;-75
2022/09/07 11:28:18;;;;;;;5.80;2.00;;;26.50;71.70;;;;;;5038272;28;20440;-75
2022/09/07 11:31:10;;;;;;;5.37;2.10;;;26.60;70.70;;;;;;5048827;28;20452;-75
2022/09/07 11:34:01;;;;;;;8.80;1.97;;;26.70;68.60;;;;;;5047339;28;20525;-75
2022/09/07 11:36:50;;;;;;;6.20;2.20;;;26.90;67.80;;;;;;5048838;28;20485;-75
2022/09/07 11:39:43;;;;;;;7.30;1.97;;;27.10;66.10;;;;;;5049234;28;20454;-75
2022/09/07 11:42:34;;;;;;;5.00;2.07;;;27.10;64.60;;;;;;5048595;28;20471;-75
2022/09/07 11:45:25;;;;;;;5.83;2.17;;;27.10;63.70;;;;;;5052689;28;20797;-75
2022/09/07 11:48:17;;;;;;;6.27;1.97;;;27.30;60.40;;;;;;5044652;28;20496;-75
2022/09/07 11:51:08;;;;;;;5.43;2.00;;;27.30;61.60;;;;;;5047658;28;20440;-75
2022/09/07 11:54:00;;;;;;;3.60;1.80;;;27.30;57.70;;;;;;5045397;28;20559;-75
2022/09/07 11:56:55;;;;;;;4.77;1.93;;;27.40;60.40;;;;;;5048291;28;20854;-74
2022/09/07 11:59:52;;;;;;;6.80;2.40;;;27.50;58.90;;;;;;5051860;28;20820;-75
2022/09/07 12:03:13;;;;;;;5.87;2.00;;;27.20;57.50;;;;;;5049073;28;20428;-75
2022/09/07 12:06:46;;;;;;;6.80;2.50;;;26.80;62.20;;;;;;5045523;28;21028;-75
2022/09/07 12:09:45;;;;;;;7.87;2.10;;;26.90;60.60;;;;;;5048313;28;20452;-75
2022/09/07 12:12:57;;;;;;;8.63;2.20;;;27.20;59.90;;;;;;5044550;28;20435;-75
2022/09/07 12:15:52;;;;;;;6.47;2.23;;;27.10;57.20;;;;;;5053682;28;20612;-75
2022/09/07 12:19:14;;;;;;;4.03;2.00;;;27.10;59.10;;;;;;5043230;28;20808;-75
2022/09/07 12:22:00;;;;;;;7.80;2.13;;;26.80;54.50;;;;;;5051893;28;20439;-75
2022/09/07 12:24:48;;;;;;;5.30;1.80;;;26.70;55.80;;;;;;5049031;28;20455;-75
2022/09/07 12:27:39;;;;;;;6.13;1.73;;;26.50;55.00;;;;;;5041753;28;20471;-75
2022/09/07 12:30:56;;;;;;;8.00;1.60;;;26.40;56.10;;;;;;5045888;28;20437;-75
2022/09/07 12:33:44;;;;;;;5.73;1.90;;;26.20;57.40;;;;;;5046866;28;20436;-75
2022/09/07 12:36:49;;;;;;;8.83;2.27;;;26.20;57.50;;;;;;5040490;28;20949;-75
2022/09/07 12:39:36;;;;;;;4.13;1.70;;;26.00;59.40;;;;;;5050484;28;20548;-75
2022/09/07 12:42:23;;;;;;;5.20;1.50;;;26.00;53.00;;;;;;5045894;28;20593;-75
2022/09/07 12:45:50;;;;;;;4.60;1.40;;;25.90;52.10;;;;;;5036695;28;21091;-75
2022/09/07 12:48:45;;;;;;;4.27;1.93;;;26.00;52.40;;;;;;5042317;28;20452;-75
2022/09/07 12:51:35;;;;;;;4.70;1.93;;;26.00;51.70;;;;;;5040048;28;20611;-75
2022/09/07 12:54:27;;;;;;;3.07;1.30;;;26.30;53.20;;;;;;5038518;28;20667;-75
2022/09/07 12:57:26;;;;;;;8.67;3.10;;;26.60;50.90;;;;;;5038322;28;20443;-75
2022/09/07 13:00:18;;;;;;;3.40;1.50;;;26.90;50.90;;;;;;5041109;28;20440;-75
2022/09/07 13:03:36;;;;;;;5.40;1.80;;;26.80;50.70;;;;;;5037617;28;20946;-75
2022/09/07 13:06:35;;;;;;;6.70;2.10;;;26.60;47.90;;;;;;5020935;28;20455;-75
2022/09/07 13:09:31;;;;;;;3.50;2.10;;;26.50;50.00;;;;;;5039019;28;20447;-76
2022/09/07 13:12:29;;;;;;;6.27;1.53;;;26.30;49.80;;;;;;5041509;28;20843;-75
2022/09/07 13:15:34;;;;;;;6.07;1.63;;;26.10;51.40;;;;;;5038164;28;20507;-75
2022/09/07 13:18:42;;;;;;;8.90;2.13;;;26.00;53.00;;;;;;5042229;28;20456;-75
2022/09/07 13:21:41;;;;;;;3.33;2.00;;;25.90;53.60;;;;;;5049770;28;20476;-76
2022/09/07 13:24:48;;;;;;;6.47;2.00;;;25.90;58.60;;;;;;5047139;28;21085;-76
2022/09/07 13:27:45;;;;;;;2.93;2.00;;;25.90;58.00;;;;;;5052560;28;20466;-75
2022/09/07 13:30:45;;;;;;;5.10;2.10;;;25.90;58.50;;;;;;5051249;28;20517;-75
2022/09/07 13:33:44;;;;;;;3.70;2.10;;;26.20;58.40;;;;;;5047719;28;21130;-75
2022/09/07 13:36:38;;;;;;;6.63;2.10;;;26.80;57.00;;;;;;5049767;28;20833;-75
2022/09/07 13:39:24;;;;;;;4.67;1.93;;;27.50;53.30;;;;;;5053462;28;20519;-75
2022/09/07 13:42:16;;;;;;;8.13;1.73;;;27.70;44.30;;;;;;5046113;28;20425;-75
2022/09/07 13:45:04;;;;;;;3.70;1.63;;;27.60;41.80;;;;;;5036162;28;20876;-76
2022/09/07 13:48:00;;;;;;;5.80;2.07;;;27.90;44.00;;;;;;5036802;28;20557;-75
2022/09/07 13:50:54;;;;;;;4.50;1.60;;;28.10;39.20;;;;;;5039385;28;20451;-76
2022/09/07 13:53:54;;;;;;;3.27;1.40;;;28.40;39.30;;;;;;5046450;28;20447;-75
2022/09/07 13:56:51;;;;;;;4.40;1.67;;;28.60;38.60;;;;;;5040237;28;20534;-75
2022/09/07 13:59:37;;;;;;;3.33;1.63;;;28.60;37.40;;;;;;5049559;28;20432;-76
2022/09/07 14:02:25;;;;;;;3.67;2.13;;;28.40;36.40;;;;;;5039999;28;20431;-75
2022/09/07 14:05:17;;;;;;;8.03;2.07;;;27.70;37.30;;;;;;5049038;28;20479;-75
2022/09/07 14:08:03;;;;;;;4.10;1.70;;;27.60;38.70;;;;;;5048879;28;20474;-75
2022/09/07 14:10:50;;;;;;;2.30;1.40;;;27.50;39.70;;;;;;5049616;28;20451;-75
2022/09/07 14:13:36;;;;;;;4.77;1.30;;;27.80;39.50;;;;;;5046682;28;20560;-74
2022/09/07 14:16:21;;;;;;;4.43;1.70;;;28.10;37.20;;;;;;5049297;28;20475;-74
2022/09/07 14:19:12;;;;;;;3.17;1.77;;;28.50;36.60;;;;;;5049298;28;20475;-75
2022/09/07 14:22:00;;;;;;;5.83;2.07;;;28.70;35.00;;;;;;5048612;28;20808;-75
2022/09/07 14:24:49;;;;;;;7.33;1.70;;;28.90;36.10;;;;;;5046206;28;20544;-76
2022/09/07 14:27:38;;;;;;;2.97;1.30;;;29.10;32.10;;;;;;5053781;28;20479;-75
2022/09/07 14:30:27;;;;;;;7.00;1.57;;;28.90;30.00;;;;;;5048310;28;20446;-74
2022/09/07 14:33:16;;;;;;;4.27;2.00;;;28.60;32.20;;;;;;5053647;28;20449;-75
2022/09/07 14:36:02;;;;;;;4.63;1.73;;;28.40;33.30;;;;;;5049415;28;21068;-74
2022/09/07 14:38:49;;;;;;;3.60;1.40;;;27.90;34.80;;;;;;5044129;28;20845;-75
2022/09/07 14:41:38;;;;;;;7.60;1.60;;;27.50;33.30;;;;;;5053494;28;20448;-75
2022/09/07 14:44:34;;;;;;;3.20;1.70;;;27.30;35.80;;;;;;5056280;28;20584;-74
2022/09/07 14:47:26;;;;;;;8.67;2.03;;;27.10;38.10;;;;;;5052022;28;20546;-75